EYSA

Šiauliai International Airport

Šiauliai, Lithuania
METAR EYSA 151850Z 26012KT 3400 BR OVC002 03/03 Q1025 R32R/29//95 AMB NOSIG
Observed Flight Rules
Feb-15 @ 18:50 UTC (20 minutes ago) Instrument Flight Rules
Wind Visibility Clouds Conditions
260° at 12 knots 3,396 meters
  • Overcast at 200' AGL
  • Mist
Temperatures Readings
Current 3°C / 37°F
Dewpoint 3°C / 37°F
Humidity 100%
Altimeter 30.27" Hg
Pressure 1024.92 hPa
Elevation 135
METAR EYSA 151850Z 26012KT 3400 BR OVC002 03/03 Q1025 R32R/29//95 AMB NOSIG
Observed Flight Rules
Feb-15 @ 18:50 UTC
(20 minutes ago)
LIFR
Wind Visibility
260° at 12 knots 3,396 meters
Clouds
  • Overcast at 200' AGL
Conditions
  • Mist
Temperature Dewpoint
3°C / 37°F 3°C / 37°F
Humidity Altimeter Pressure
100% 30.27" Hg 1024.92 hPa